createdAt,value
2019-05-20T00:00:08.732Z,99815.37
2019-05-20T00:02:37.559Z,99815.34
2019-05-20T00:05:09.025Z,99811.42
2019-05-20T00:07:37.779Z,99813.69
2019-05-20T00:10:08.047Z,99813.31
2019-05-20T00:12:36.704Z,99817.58
2019-05-20T00:15:06.562Z,99822.73
2019-05-20T00:17:37.188Z,99818.07
2019-05-20T00:20:08.151Z,99822.58
2019-05-20T00:22:36.855Z,99828.79
2019-05-20T00:25:06.990Z,99824.20
2019-05-20T00:27:36.050Z,99820.41
2019-05-20T00:30:06.304Z,99807.61
2019-05-20T00:32:41.225Z,99814.78
2019-05-20T00:35:07.746Z,99811.17
2019-05-20T00:37:36.446Z,99812.45
2019-05-20T00:40:07.499Z,99820.02
2019-05-20T00:42:39.008Z,99813.41
2019-05-20T00:45:08.294Z,99813.32
2019-05-20T00:47:36.869Z,99814.86
2019-05-20T00:50:06.809Z,99812.97
2019-05-20T00:52:38.087Z,99811.66
2019-05-20T00:55:09.051Z,99811.96
2019-05-20T00:57:37.766Z,99808.23
2019-05-20T01:00:08.129Z,99813.22
2019-05-20T01:02:36.795Z,99801.02
2019-05-20T01:05:06.161Z,99798.81
2019-05-20T01:07:35.233Z,99798.74
2019-05-20T01:10:05.533Z,99796.92
2019-05-20T01:12:35.881Z,99802.25
2019-05-20T01:15:06.321Z,99803.55
2019-05-20T01:17:35.072Z,99797.47
2019-05-20T01:20:07.238Z,99792.75
2019-05-20T01:22:37.442Z,99789.73
2019-05-20T01:25:09.192Z,99790.70
2019-05-20T01:27:37.887Z,99788.20
2019-05-20T01:30:11.213Z,99784.99
2019-05-20T01:32:39.915Z,99778.87
2019-05-20T01:35:09.383Z,99780.63
2019-05-20T01:37:38.142Z,99785.55
2019-05-20T01:40:07.482Z,99778.84
2019-05-20T01:42:39.001Z,99780.42
2019-05-20T01:45:08.135Z,99789.44
2019-05-20T01:47:36.852Z,99796.34
2019-05-20T01:50:09.128Z,99798.62
2019-05-20T01:52:37.880Z,99798.96
2019-05-20T01:55:08.162Z,99796.61
2019-05-20T01:57:37.209Z,99794.97
2019-05-20T02:00:07.997Z,99790.34
2019-05-20T02:02:36.745Z,99786.89
2019-05-20T02:05:08.213Z,99779.33
2019-05-20T02:07:36.962Z,99785.84
2019-05-20T02:10:07.436Z,99776.19
2019-05-20T02:12:37.649Z,99774.40
2019-05-20T02:15:19.884Z,99767.52
2019-05-20T02:17:48.617Z,99763.16
2019-05-20T02:20:17.328Z,99763.90
2019-05-20T02:22:46.038Z,99754.00
2019-05-20T02:25:15.023Z,99761.70
2019-05-20T02:27:43.776Z,99759.35
2019-05-20T02:30:12.763Z,99755.28
2019-05-20T02:32:41.432Z,99759.20
2019-05-20T02:35:10.245Z,99759.42
2019-05-20T02:37:38.952Z,99758.44
2019-05-20T02:40:08.603Z,99749.78
2019-05-20T02:42:37.475Z,99755.48
2019-05-20T02:45:09.614Z,99751.06
2019-05-20T02:47:38.331Z,99753.56
2019-05-20T02:50:07.358Z,99755.61
2019-05-20T02:52:37.674Z,99753.17
2019-05-20T02:55:09.403Z,99755.67
2019-05-20T02:57:38.017Z,99756.74
2019-05-20T03:00:08.051Z,99748.30
2019-05-20T03:02:36.725Z,99752.58
2019-05-20T03:05:07.104Z,99750.20
2019-05-20T03:07:35.857Z,99750.70
2019-05-20T03:10:06.547Z,99751.69
2019-05-20T03:12:36.671Z,99745.98
2019-05-20T03:15:06.514Z,99745.62
2019-05-20T03:17:36.688Z,99747.20
2019-05-20T03:20:06.378Z,99756.92
2019-05-20T03:22:35.053Z,99752.43
2019-05-20T03:25:05.403Z,99757.58
2019-05-20T03:27:35.748Z,99743.66
2019-05-20T03:30:05.811Z,99750.14
2019-05-20T03:32:37.722Z,99747.28
2019-05-20T03:35:08.186Z,99750.62
2019-05-20T03:37:37.198Z,99752.07
2019-05-20T03:40:07.463Z,99752.07
2019-05-20T03:42:39.154Z,99747.91
2019-05-20T03:45:08.210Z,99748.06
2019-05-20T03:47:36.937Z,99746.95
2019-05-20T03:50:08.906Z,99745.89
2019-05-20T03:52:37.648Z,99748.89
2019-05-20T03:55:08.048Z,99745.89
2019-05-20T03:57:36.766Z,99742.35
2019-05-20T04:00:07.437Z,99743.89
2019-05-20T04:02:39.192Z,99747.34
2019-05-20T04:05:07.908Z,99741.19
2019-05-20T04:07:36.627Z,99742.23
2019-05-20T04:10:06.993Z,99744.31
2019-05-20T04:12:35.702Z,99743.14
2019-05-20T04:15:05.724Z,99741.72
2019-05-20T04:17:34.783Z,99741.59
2019-05-20T04:20:06.463Z,99746.08
2019-05-20T04:22:36.674Z,99746.45
2019-05-20T04:25:06.595Z,99751.95
2019-05-20T04:27:36.785Z,99753.33
2019-05-20T04:30:07.250Z,99761.06
2019-05-20T04:32:37.420Z,99755.00
2019-05-20T04:35:21.419Z,99751.45
2019-05-20T04:37:39.451Z,99753.43
2019-05-20T04:40:08.346Z,99757.73
2019-05-20T04:42:37.116Z,99763.23
2019-05-20T04:45:06.934Z,99757.07
2019-05-20T04:47:35.648Z,99758.25
2019-05-20T04:50:08.596Z,99764.37
2019-05-20T04:52:37.688Z,99766.06
2019-05-20T04:55:06.611Z,99762.98
2019-05-20T04:57:37.070Z,99755.19
2019-05-20T05:00:09.679Z,99755.20
2019-05-20T05:02:38.404Z,99757.78
2019-05-20T05:05:08.000Z,99762.55
2019-05-20T05:07:36.758Z,99761.16
2019-05-20T05:10:08.264Z,99760.45
2019-05-20T05:12:37.154Z,99756.30
2019-05-20T05:15:10.609Z,99748.44
2019-05-20T05:17:39.346Z,99741.88
2019-05-20T05:20:17.507Z,99747.44
2019-05-20T05:22:38.702Z,99756.87
2019-05-20T05:25:07.752Z,99748.31
2019-05-20T05:27:36.712Z,99757.74
2019-05-20T05:30:08.285Z,99755.95
2019-05-20T05:32:43.996Z,99750.58
2019-05-20T05:35:15.079Z,99752.27
2019-05-20T05:37:44.016Z,99752.86
2019-05-20T05:40:12.862Z,99762.66
2019-05-20T05:42:41.538Z,99762.89
2019-05-20T05:45:10.966Z,99759.06
2019-05-20T05:47:39.646Z,99757.52
2019-05-20T05:50:09.069Z,99762.63
2019-05-20T05:52:38.053Z,99751.11
2019-05-20T05:55:06.987Z,99754.30
2019-05-20T05:57:35.665Z,99754.89
2019-05-20T06:00:06.639Z,99748.38
2019-05-20T06:02:36.741Z,99741.38
2019-05-20T06:05:06.379Z,99738.44
2019-05-20T06:07:35.029Z,99734.69
2019-05-20T06:10:05.248Z,99726.98
2019-05-20T06:12:33.995Z,99718.56
2019-05-20T06:15:02.803Z,99720.45
2019-05-20T06:17:32.514Z,99722.92
2019-05-20T06:20:01.187Z,99725.76
2019-05-20T06:22:29.847Z,99728.71
2019-05-20T06:24:58.497Z,99730.38
2019-05-20T06:27:27.145Z,99725.59
2019-05-20T06:29:55.807Z,99736.21
2019-05-20T06:32:24.850Z,99738.39
2019-05-20T06:34:53.541Z,99742.06
2019-05-20T06:37:23.900Z,99733.77
2019-05-20T06:39:52.622Z,99741.46
2019-05-20T06:42:21.339Z,99736.98
2019-05-20T06:44:52.910Z,99739.87
2019-05-20T06:47:20.507Z,99745.27
2019-05-20T06:49:49.329Z,99737.94
2019-05-20T06:52:33.261Z,99737.45
2019-05-20T06:54:48.608Z,99743.13
2019-05-20T06:57:17.260Z,99740.16
2019-05-20T06:59:46.037Z,99735.52
2019-05-20T07:02:14.698Z,99732.79
2019-05-20T07:04:43.675Z,99735.75
2019-05-20T07:07:20.575Z,99731.73
2019-05-20T07:09:42.848Z,99719.23
2019-05-20T07:12:11.563Z,99724.76
2019-05-20T07:14:40.290Z,99722.27
2019-05-20T07:17:09.005Z,99725.78
2019-05-20T07:19:37.834Z,99722.33
2019-05-20T07:22:06.548Z,99724.59
2019-05-20T07:24:36.702Z,99730.31
2019-05-20T07:27:08.504Z,99728.23
2019-05-20T07:29:37.324Z,99726.36
2019-05-20T07:32:07.496Z,99723.44
2019-05-20T07:34:38.842Z,99721.48
2019-05-20T07:37:07.608Z,99725.22
2019-05-20T07:39:36.423Z,99728.48
2019-05-20T07:42:06.602Z,99723.09
2019-05-20T07:44:38.214Z,99720.56
2019-05-20T07:47:06.869Z,99718.69
2019-05-20T07:49:36.002Z,99722.83
2019-05-20T07:52:05.517Z,99728.33
2019-05-20T07:54:37.359Z,99722.44
2019-05-20T07:57:09.052Z,99724.27
2019-05-20T07:59:40.059Z,99725.80
2019-05-20T08:02:09.411Z,99729.55
2019-05-20T08:04:38.099Z,99716.66
2019-05-20T08:07:26.247Z,99720.82
2019-05-20T08:09:44.639Z,99717.35
2019-05-20T08:12:07.700Z,99724.56
2019-05-20T08:14:36.818Z,99722.70
2019-05-20T08:17:08.480Z,99723.66
2019-05-20T08:19:37.196Z,99720.66
2019-05-20T08:22:07.760Z,99719.39
2019-05-20T08:24:36.472Z,99721.47
2019-05-20T08:27:06.729Z,99720.89
2019-05-20T08:29:38.538Z,99710.32
2019-05-20T08:32:07.236Z,99717.72
2019-05-20T08:34:38.590Z,99715.48
2019-05-20T08:37:08.007Z,99722.65
2019-05-20T08:39:37.271Z,99722.37
2019-05-20T08:42:07.636Z,99723.22
2019-05-20T08:44:36.523Z,99716.12
2019-05-20T08:47:06.712Z,99721.27
2019-05-20T08:49:36.796Z,99716.83
2019-05-20T08:52:08.667Z,99721.45
2019-05-20T08:54:40.231Z,99710.53
2019-05-20T08:57:07.735Z,99709.73
2019-05-20T08:59:36.446Z,99705.05
2019-05-20T09:02:06.603Z,99708.32
2019-05-20T09:04:35.466Z,99700.73
2019-05-20T09:07:04.543Z,99698.23
2019-05-20T09:09:33.434Z,99705.55
2019-05-20T09:12:02.205Z,99699.58
2019-05-20T09:14:31.315Z,99701.94
2019-05-20T09:16:59.894Z,99705.75
2019-05-20T09:19:28.598Z,99703.75
2019-05-20T09:21:57.422Z,99691.98
2019-05-20T09:24:26.145Z,99692.77
2019-05-20T09:26:54.857Z,99691.91
2019-05-20T09:29:23.532Z,99689.75
2019-05-20T09:31:52.500Z,99683.16
2019-05-20T09:34:21.221Z,99680.78
2019-05-20T09:36:50.032Z,99688.12
2019-05-20T09:39:18.731Z,99682.64
2019-05-20T09:41:47.553Z,99680.55
2019-05-20T09:44:16.259Z,99676.75
2019-05-20T09:46:44.974Z,99682.69
2019-05-20T09:49:13.685Z,99673.89
2019-05-20T09:51:42.393Z,99672.15
2019-05-20T09:54:11.104Z,99673.17
2019-05-20T09:56:39.818Z,99675.61
2019-05-20T09:59:08.531Z,99664.83
2019-05-20T10:01:39.970Z,99664.00
2019-05-20T10:04:07.694Z,99664.63
2019-05-20T10:06:36.507Z,99672.94
2019-05-20T10:09:06.549Z,99667.44
2019-05-20T10:11:37.021Z,99663.96
2019-05-20T10:14:05.750Z,99664.36
2019-05-20T10:16:34.399Z,99667.94
2019-05-20T10:19:03.183Z,99667.44
2019-05-20T10:21:31.888Z,99659.97
2019-05-20T10:24:01.050Z,99662.55
2019-05-20T10:26:29.824Z,99663.10
2019-05-20T10:28:58.483Z,99666.92
2019-05-20T10:31:27.151Z,99665.98
2019-05-20T10:33:55.790Z,99669.16
2019-05-20T10:36:24.438Z,99669.50
2019-05-20T10:38:58.556Z,99671.30
2019-05-20T10:41:23.613Z,99665.37
2019-05-20T10:43:52.267Z,99668.50
2019-05-20T10:46:21.038Z,99673.38
2019-05-20T10:48:50.224Z,99674.02
2019-05-20T10:51:18.933Z,99672.02
2019-05-20T10:53:47.749Z,99666.63
2019-05-20T10:56:16.459Z,99662.45
2019-05-20T10:58:45.172Z,99666.72
2019-05-20T11:01:13.886Z,99666.02
2019-05-20T11:03:42.902Z,99670.23
2019-05-20T11:06:11.604Z,99666.72
2019-05-20T11:08:40.428Z,99672.98
2019-05-20T11:11:13.928Z,99666.13
2019-05-20T11:13:39.705Z,99662.33
2019-05-20T11:16:08.533Z,99660.45
2019-05-20T11:18:37.266Z,99667.31
2019-05-20T11:21:07.567Z,99661.77
2019-05-20T11:23:37.484Z,99662.75
2019-05-20T11:26:09.356Z,99660.27
2019-05-20T11:28:38.517Z,99654.45
2019-05-20T11:31:07.533Z,99660.75
2019-05-20T11:33:39.326Z,99648.89
2019-05-20T11:36:08.030Z,99644.94
2019-05-20T11:38:36.856Z,99641.52
2019-05-20T11:41:05.618Z,99637.91
2019-05-20T11:43:34.482Z,99638.63
2019-05-20T11:46:03.194Z,99638.66
2019-05-20T11:48:32.008Z,99641.92
2019-05-20T11:51:00.717Z,99640.19
2019-05-20T11:53:29.533Z,99637.09
2019-05-20T11:55:58.553Z,99638.10
2019-05-20T11:58:27.262Z,99638.17
2019-05-20T12:00:56.104Z,99637.36
2019-05-20T12:03:25.225Z,99639.94
2019-05-20T12:05:53.906Z,99635.62
2019-05-20T12:08:22.672Z,99635.55
2019-05-20T12:10:51.390Z,99624.83
2019-05-20T12:13:20.096Z,99620.30
2019-05-20T12:15:48.705Z,99613.82
2019-05-20T12:18:17.452Z,99610.20
2019-05-20T12:20:46.132Z,99603.03
2019-05-20T12:23:14.844Z,99602.23
2019-05-20T12:25:43.555Z,99600.76
2019-05-20T12:28:12.268Z,99590.73
2019-05-20T12:30:41.084Z,99584.66
2019-05-20T12:33:18.431Z,99583.44
2019-05-20T12:35:40.348Z,99581.29
2019-05-20T12:38:09.267Z,99576.73
2019-05-20T12:40:37.989Z,99577.05
2019-05-20T12:43:06.701Z,99581.44
2019-05-20T12:45:38.322Z,99581.63
2019-05-20T12:48:07.110Z,99582.06
2019-05-20T12:50:35.968Z,99574.14
2019-05-20T12:53:07.741Z,99568.39
2019-05-20T12:55:36.405Z,99562.28
2019-05-20T12:58:06.609Z,99559.23
2019-05-20T13:00:36.888Z,99564.80
2019-05-20T13:03:08.560Z,99554.55
2019-05-20T13:05:37.215Z,99535.09
2019-05-20T13:08:07.457Z,99542.22
2019-05-20T13:10:39.131Z,99551.37
2019-05-20T13:13:08.170Z,99555.08
2019-05-20T13:15:36.855Z,99551.80
2019-05-20T13:18:08.960Z,99536.92
2019-05-20T13:20:37.683Z,99542.14
2019-05-20T13:23:09.184Z,99542.64
2019-05-20T13:25:37.048Z,99536.75
2019-05-20T13:28:05.759Z,99532.11
2019-05-20T13:30:34.473Z,99533.94
2019-05-20T13:33:03.309Z,99541.09
2019-05-20T13:35:32.096Z,99535.48
2019-05-20T13:38:00.805Z,99531.84
2019-05-20T13:40:45.180Z,99520.28
2019-05-20T13:42:59.975Z,99507.36
2019-05-20T13:45:28.647Z,99496.44
2019-05-20T13:47:57.401Z,99485.02
2019-05-20T13:50:26.106Z,99487.16
2019-05-20T13:52:54.826Z,99480.40
2019-05-20T13:55:23.550Z,99488.99
2019-05-20T13:57:52.278Z,99502.09
2019-05-20T14:00:21.402Z,99504.87
2019-05-20T14:02:50.521Z,99504.19
2019-05-20T14:05:19.650Z,99503.81
2019-05-20T14:07:48.372Z,99503.75
2019-05-20T14:10:17.395Z,99507.13
2019-05-20T14:12:46.614Z,99512.78
2019-05-20T14:15:15.737Z,99517.91
2019-05-20T14:17:44.458Z,99509.81
2019-05-20T14:20:13.669Z,99509.59
2019-05-20T14:22:43.099Z,99504.17
2019-05-20T14:25:12.017Z,99495.06
2019-05-20T14:27:41.036Z,99507.64
2019-05-20T14:30:10.472Z,99553.72
2019-05-20T14:32:39.183Z,99594.24
2019-05-20T14:35:08.415Z,99634.73
2019-05-20T14:37:37.133Z,99645.44
2019-05-20T14:40:07.081Z,99626.99
2019-05-20T14:42:35.849Z,99623.23
2019-05-20T14:45:05.542Z,99603.38
2019-05-20T14:47:36.216Z,99560.20
2019-05-20T14:50:09.243Z,99566.63
2019-05-20T14:52:37.966Z,99575.22
2019-05-20T14:55:07.351Z,99580.59
2019-05-20T14:57:37.486Z,99593.64
2019-05-20T15:00:09.668Z,99575.80
2019-05-20T15:02:38.426Z,99583.48
2019-05-20T15:05:08.438Z,99575.90
2019-05-20T15:07:37.192Z,99581.89
2019-05-20T15:10:09.480Z,99573.70
2019-05-20T15:12:38.154Z,99567.88
2019-05-20T15:15:07.415Z,99575.81
2019-05-20T15:17:37.987Z,99585.16
2019-05-20T15:20:07.828Z,99588.22
2019-05-20T15:22:36.642Z,99582.87
2019-05-20T15:25:07.199Z,99574.93
2019-05-20T15:27:37.358Z,99564.95
2019-05-20T15:30:10.509Z,99562.93
2019-05-20T15:32:39.170Z,99559.70
2019-05-20T15:35:08.284Z,99559.32
2019-05-20T15:37:37.132Z,99549.54
2019-05-20T15:40:07.395Z,99539.18
2019-05-20T15:42:38.997Z,99532.66
2019-05-20T15:45:08.945Z,99539.27
2019-05-20T15:47:37.658Z,99534.75
2019-05-20T15:50:09.974Z,99536.83
2019-05-20T15:52:38.198Z,99539.20
2019-05-20T15:55:07.666Z,99544.45
2019-05-20T15:57:36.355Z,99544.53
2019-05-20T16:00:08.943Z,99547.61
2019-05-20T16:02:37.870Z,99535.27
2019-05-20T16:05:08.526Z,99525.90
2019-05-20T16:07:37.349Z,99522.78
2019-05-20T16:10:07.562Z,99525.65
2019-05-20T16:12:39.013Z,99519.98
2019-05-20T16:15:08.787Z,99509.55
2019-05-20T16:17:37.546Z,99515.37
2019-05-20T16:20:09.405Z,99507.11
2019-05-20T16:22:38.050Z,99507.48
2019-05-20T16:25:07.912Z,99511.03
2019-05-20T16:27:36.722Z,99507.80
2019-05-20T16:30:12.093Z,99510.28
2019-05-20T16:32:40.707Z,99503.34
2019-05-20T16:35:10.009Z,99501.92
2019-05-20T16:37:38.843Z,99496.42
2019-05-20T16:40:11.433Z,99491.59
2019-05-20T16:42:40.671Z,99493.45
2019-05-20T16:45:11.858Z,99491.81
2019-05-20T16:47:40.452Z,99486.27
2019-05-20T16:50:10.335Z,99488.05
2019-05-20T16:52:39.025Z,99489.95
2019-05-20T16:55:08.738Z,99492.80
2019-05-20T16:57:37.593Z,99487.64
2019-05-20T17:00:29.241Z,99485.45
2019-05-20T17:02:40.093Z,99490.95
2019-05-20T17:05:08.971Z,99495.36
2019-05-20T17:07:37.918Z,99499.64
2019-05-20T17:10:08.276Z,99490.49
2019-05-20T17:12:37.134Z,99492.79
2019-05-20T17:15:07.072Z,99488.83
2019-05-20T17:17:35.787Z,99485.81
2019-05-20T17:20:05.848Z,99490.98
2019-05-20T17:22:35.164Z,99491.47
2019-05-20T17:25:07.612Z,99495.50
2019-05-20T17:27:39.768Z,99508.95
2019-05-20T17:30:09.729Z,99507.72
2019-05-20T17:32:38.414Z,99512.22
2019-05-20T17:35:07.475Z,99512.45
2019-05-20T17:37:39.866Z,99511.86
2019-05-20T17:40:09.920Z,99515.55
2019-05-20T17:42:39.934Z,99520.20
2019-05-20T17:45:09.384Z,99524.58
2019-05-20T17:47:38.204Z,99531.55
2019-05-20T17:50:07.739Z,99532.43
2019-05-20T17:52:36.656Z,99537.18
2019-05-20T17:55:07.326Z,99530.66
2019-05-20T17:57:37.994Z,99528.97
2019-05-20T18:00:09.686Z,99532.09
2019-05-20T18:02:38.601Z,99519.05
2019-05-20T18:05:07.923Z,99530.70
2019-05-20T18:07:36.643Z,99534.11
2019-05-20T18:10:07.831Z,99544.16
2019-05-20T18:12:36.547Z,99551.86
2019-05-20T18:15:08.230Z,99550.39
2019-05-20T18:17:36.936Z,99553.58
2019-05-20T18:20:06.987Z,99550.83
2019-05-20T18:22:35.713Z,99557.07
2019-05-20T18:25:06.481Z,99559.59
2019-05-20T18:27:36.639Z,99558.03
2019-05-20T18:30:09.103Z,99567.58
2019-05-20T18:32:38.650Z,99578.59
2019-05-20T18:35:08.482Z,99573.91
2019-05-20T18:37:37.158Z,99570.99
2019-05-20T18:40:13.922Z,99567.80
2019-05-20T18:42:37.861Z,99574.11
2019-05-20T18:45:07.597Z,99575.59
2019-05-20T18:47:39.296Z,99573.41
2019-05-20T18:50:08.785Z,99572.05
2019-05-20T18:52:37.797Z,99576.40
2019-05-20T18:55:08.014Z,99584.58
2019-05-20T18:57:36.746Z,99586.28
2019-05-20T19:00:11.423Z,99590.45
2019-05-20T19:02:40.122Z,99595.71
2019-05-20T19:05:08.941Z,99595.56
2019-05-20T19:07:38.077Z,99601.16
2019-05-20T19:10:07.644Z,99602.80
2019-05-20T19:12:39.146Z,99603.67
2019-05-20T19:15:08.486Z,99602.91
2019-05-20T19:17:37.941Z,99604.23
2019-05-20T19:20:07.406Z,99602.52
2019-05-20T19:22:38.071Z,99604.81
2019-05-20T19:25:07.201Z,99602.19
2019-05-20T19:27:39.122Z,99595.86
2019-05-20T19:30:08.342Z,99594.38
2019-05-20T19:32:37.125Z,99604.96
2019-05-20T19:35:07.560Z,99603.95
2019-05-20T19:37:39.281Z,99613.97
2019-05-20T19:40:08.859Z,99612.55
2019-05-20T19:42:38.083Z,99617.61
2019-05-20T19:45:07.080Z,99620.15
2019-05-20T19:47:35.872Z,99621.67
2019-05-20T19:50:06.134Z,99629.42
2019-05-20T19:52:34.952Z,99631.45
2019-05-20T19:55:04.484Z,99632.61
2019-05-20T19:57:33.207Z,99643.98
2019-05-20T20:00:01.929Z,99644.59
2019-05-20T20:02:30.648Z,99643.77
2019-05-20T20:04:59.368Z,99640.66
2019-05-20T20:07:28.867Z,99644.13
2019-05-20T20:09:57.708Z,99644.50
2019-05-20T20:12:26.422Z,99645.34
2019-05-20T20:14:55.238Z,99644.39
2019-05-20T20:17:23.958Z,99641.17
2019-05-20T20:19:52.676Z,99644.65
2019-05-20T20:22:21.385Z,99639.50
2019-05-20T20:24:50.401Z,99642.13
2019-05-20T20:27:19.121Z,99640.00
2019-05-20T20:29:47.938Z,99639.40
2019-05-20T20:32:16.656Z,99636.88
2019-05-20T20:34:45.792Z,99647.72
2019-05-20T20:37:14.489Z,99649.89
2019-05-20T20:39:43.312Z,99654.66
2019-05-20T20:42:12.978Z,99655.11
2019-05-20T20:44:42.932Z,99658.08
2019-05-20T20:47:12.226Z,99666.39
2019-05-20T20:49:40.922Z,99664.81
2019-05-20T20:52:09.851Z,99667.69
2019-05-20T20:54:39.149Z,99673.63
2019-05-20T20:57:09.001Z,99681.14
2019-05-20T20:59:38.862Z,99682.45
2019-05-20T21:02:07.962Z,99681.14
2019-05-20T21:04:36.841Z,99678.12
2019-05-20T21:07:27.298Z,99684.45
2019-05-20T21:09:57.025Z,99682.53
2019-05-20T21:12:27.288Z,99686.32
2019-05-20T21:14:56.890Z,99683.43
2019-05-20T21:17:26.934Z,99680.37
2019-05-20T21:19:56.609Z,99678.89
2019-05-20T21:22:25.486Z,99676.50
2019-05-20T21:24:54.194Z,99676.75
2019-05-20T21:27:23.010Z,99676.39
2019-05-20T21:29:51.729Z,99676.59
2019-05-20T21:32:20.431Z,99688.72
2019-05-20T21:34:49.480Z,99684.52
2019-05-20T21:37:18.271Z,99697.48
2019-05-20T21:39:46.987Z,99696.53
2019-05-20T21:42:15.699Z,99696.89
2019-05-20T21:44:44.419Z,99693.09
2019-05-20T21:47:13.463Z,99690.38
2019-05-20T21:49:42.172Z,99688.92
2019-05-20T21:52:10.893Z,99686.97
2019-05-20T21:54:39.612Z,99693.72
2019-05-20T21:57:08.421Z,99692.37
2019-05-20T21:59:37.136Z,99687.87
2019-05-20T22:02:06.281Z,99689.09
2019-05-20T22:04:35.418Z,99688.80
2019-05-20T22:07:05.983Z,99680.86
2019-05-20T22:09:37.736Z,99682.38
2019-05-20T22:12:06.589Z,99683.81
2019-05-20T22:14:37.148Z,99680.86
2019-05-20T22:17:06.178Z,99686.04
2019-05-20T22:19:35.002Z,99685.03
2019-05-20T22:22:17.648Z,99688.01
2019-05-20T22:24:46.362Z,99691.22
2019-05-20T22:27:15.071Z,99691.06
2019-05-20T22:29:43.793Z,99684.97
2019-05-20T22:32:12.619Z,99688.75
2019-05-20T22:34:52.658Z,99683.40
2019-05-20T22:37:11.809Z,99685.61
2019-05-20T22:39:40.461Z,99692.38
2019-05-20T22:42:09.247Z,99688.60
2019-05-20T22:44:37.901Z,99686.44
2019-05-20T22:47:06.584Z,99681.05
2019-05-20T22:49:36.743Z,99680.94
2019-05-20T22:52:08.443Z,99683.17
2019-05-20T22:54:37.153Z,99678.68
2019-05-20T22:57:05.867Z,99677.28
2019-05-20T22:59:34.796Z,99675.14
2019-05-20T23:02:06.085Z,99677.97
2019-05-20T23:04:37.725Z,99678.53
2019-05-20T23:07:06.691Z,99684.72
2019-05-20T23:09:38.130Z,99678.47
2019-05-20T23:12:06.891Z,99682.90
2019-05-20T23:14:38.259Z,99685.72
2019-05-20T23:17:06.975Z,99687.86
2019-05-20T23:19:35.993Z,99692.47
2019-05-20T23:22:08.908Z,99691.34
2019-05-20T23:24:37.639Z,99688.95
2019-05-20T23:27:06.414Z,99694.63
2019-05-20T23:29:36.621Z,99685.52
2019-05-20T23:32:08.418Z,99688.37
2019-05-20T23:34:37.146Z,99683.50
2019-05-20T23:37:07.160Z,99684.84
2019-05-20T23:39:37.282Z,99685.80
2019-05-20T23:42:07.439Z,99680.69
2019-05-20T23:44:38.945Z,99683.94
2019-05-20T23:47:07.662Z,99682.67
2019-05-20T23:49:36.386Z,99685.11
2019-05-20T23:52:06.945Z,99681.60
2019-05-20T23:54:35.557Z,99684.09
2019-05-20T23:57:04.685Z,99689.16
2019-05-20T23:59:35.889Z,99697.33
